Saint-Jacques, Canada
Current Conditions -  °F | °C
As of 1:00 PM on Saturday 20 Dec 2014 (Local Time) from CYMX Reporting Station
Few Clouds Few Clouds  
Wind Chill:   Ceiling: Unl
Heat Index: 18°   Visibility: 25mi
Dew Point: 10°   Wind: 8mph
Humidity: 73%   Direction: 70°ENE
Pressure: 30.32"   Gusts: NA
Location:  45.95°N, 73.57°W
Report Text: CYMX 201800Z 07007KT 020V090 25SM FEW010 FEW150 M08/M12 A3032 RMK SF1AC1 SF TR SLP275
Loading
Personal Weather Stations






























Interactive Weather Map New forecast layout! Learn more

10-Day Weather Forecast

Advertisements
Track Severe Weather on mobile